createdAt,value
2018-04-13T00:00:32.055Z,0
2018-04-13T00:01:32.362Z,0
2018-04-13T00:02:32.128Z,0
2018-04-13T00:03:32.168Z,0
2018-04-13T00:04:32.218Z,0
2018-04-13T00:05:32.521Z,0
2018-04-13T00:06:32.558Z,0
2018-04-13T00:07:32.325Z,0
2018-04-13T00:08:32.633Z,0
2018-04-13T00:09:32.398Z,0
2018-04-13T00:10:32.438Z,0
2018-04-13T00:11:32.483Z,0
2018-04-13T00:12:32.520Z,0
2018-04-13T00:13:32.554Z,0
2018-04-13T00:14:32.591Z,0
2018-04-13T00:15:32.626Z,0
2018-04-13T00:16:32.680Z,0
2018-04-13T00:17:32.708Z,0
2018-04-13T00:18:33.011Z,0
2018-04-13T00:19:33.043Z,0
2018-04-13T00:20:32.823Z,0
2018-04-13T00:21:32.869Z,0
2018-04-13T00:22:32.906Z,0
2018-04-13T00:23:32.938Z,0
2018-04-13T00:24:32.977Z,0
2018-04-13T00:25:33.277Z,0
2018-04-13T00:26:33.050Z,0
2018-04-13T00:27:33.097Z,0
2018-04-13T00:28:33.139Z,0
2018-04-13T00:29:33.174Z,0
2018-04-13T00:30:33.467Z,0
2018-04-13T00:31:33.519Z,0
2018-04-13T00:32:33.542Z,0
2018-04-13T00:33:33.331Z,0
2018-04-13T00:34:33.358Z,0
2018-04-13T00:35:33.401Z,0
2018-04-13T00:36:33.693Z,0
2018-04-13T00:37:33.483Z,0
2018-04-13T00:38:33.511Z,0
2018-04-13T00:39:33.556Z,0
2018-04-13T00:40:33.595Z,0
2018-04-13T00:41:34.152Z,0
2018-04-13T00:42:33.668Z,0
2018-04-13T00:43:33.707Z,0
2018-04-13T00:44:33.747Z,0
2018-04-13T00:45:33.781Z,0
2018-04-13T00:46:33.818Z,0
2018-04-13T00:47:33.859Z,0
2018-04-13T00:48:33.900Z,0
2018-04-13T00:49:34.199Z,0
2018-04-13T00:50:33.970Z,0
2018-04-13T00:51:34.014Z,0
2018-04-13T00:52:34.046Z,0
2018-04-13T00:53:34.117Z,0
2018-04-13T00:54:34.126Z,0
2018-04-13T00:55:34.167Z,0
2018-04-13T00:56:34.200Z,0
2018-04-13T00:57:34.238Z,0
2018-04-13T00:58:34.283Z,0
2018-04-13T00:59:34.325Z,0
2018-04-13T01:00:34.354Z,0
2018-04-13T01:01:34.396Z,0
2018-04-13T01:02:34.427Z,0
2018-04-13T01:03:34.729Z,0
2018-04-13T01:04:34.516Z,0
2018-04-13T01:05:34.548Z,0
2018-04-13T01:06:34.586Z,0
2018-04-13T01:07:34.618Z,0
2018-04-13T01:08:35.788Z,0
2018-04-13T01:09:34.699Z,0
2018-04-13T01:10:35.008Z,0
2018-04-13T01:11:34.781Z,0
2018-04-13T01:12:34.817Z,0
2018-04-13T01:13:35.373Z,0
2018-04-13T01:14:34.889Z,0
2018-04-13T01:15:35.465Z,0
2018-04-13T01:16:34.963Z,0
2018-04-13T01:17:35.007Z,0
2018-04-13T01:18:35.045Z,0
2018-04-13T01:19:35.347Z,0
2018-04-13T01:20:35.385Z,0
2018-04-13T01:21:35.423Z,0
2018-04-13T01:22:35.193Z,0
2018-04-13T01:23:35.374Z,0
2018-04-13T01:24:35.266Z,0
2018-04-13T01:25:35.577Z,0
2018-04-13T01:26:35.349Z,0
2018-04-13T01:27:35.388Z,0
2018-04-13T01:28:35.660Z,0
2018-04-13T01:29:35.459Z,0
2018-04-13T01:30:35.760Z,0
2018-04-13T01:31:35.797Z,0
2018-04-13T01:32:35.579Z,0
2018-04-13T01:33:35.631Z,0
2018-04-13T01:34:35.654Z,0
2018-04-13T01:35:35.955Z,0
2018-04-13T01:36:35.724Z,0
2018-04-13T01:37:35.771Z,0
2018-04-13T01:38:35.804Z,0
2018-04-13T01:39:35.845Z,0
2018-04-13T01:40:36.140Z,0
2018-04-13T01:41:35.926Z,0
2018-04-13T01:42:35.964Z,0
2018-04-13T01:43:36.002Z,0
2018-04-13T01:44:36.037Z,0
2018-04-13T01:45:36.067Z,0
2018-04-13T01:46:36.109Z,0
2018-04-13T01:47:36.153Z,0
2018-04-13T01:48:36.184Z,0
2018-04-13T01:49:36.220Z,0
2018-04-13T01:50:36.268Z,0
2018-04-13T01:51:36.563Z,0
2018-04-13T01:52:36.607Z,0
2018-04-13T01:53:36.641Z,0
2018-04-13T01:54:36.415Z,0
2018-04-13T01:55:36.463Z,0
2018-04-13T01:56:36.492Z,0
2018-04-13T01:57:36.522Z,0
2018-04-13T01:58:36.560Z,0
2018-04-13T01:59:36.605Z,0
2018-04-13T02:00:37.167Z,0
2018-04-13T02:01:36.693Z,0
2018-04-13T02:02:36.723Z,0
2018-04-13T02:03:37.273Z,0
2018-04-13T02:04:36.807Z,0
2018-04-13T02:05:36.828Z,0
2018-04-13T02:06:37.137Z,0
2018-04-13T02:07:36.903Z,0
2018-04-13T02:08:36.946Z,0
2018-04-13T02:09:36.993Z,0
2018-04-13T02:10:37.022Z,0
2018-04-13T02:11:37.055Z,0
2018-04-13T02:12:37.103Z,0
2018-04-13T02:13:37.392Z,0
2018-04-13T02:14:37.428Z,0
2018-04-13T02:15:37.215Z,0
2018-04-13T02:16:37.255Z,0
2018-04-13T02:17:37.283Z,0
2018-04-13T02:18:37.328Z,0
2018-04-13T02:19:37.361Z,0
2018-04-13T02:20:37.403Z,0
2018-04-13T02:21:37.439Z,0
2018-04-13T02:22:37.487Z,0
2018-04-13T02:23:37.522Z,0
2018-04-13T02:24:37.818Z,0
2018-04-13T02:25:37.589Z,0
2018-04-13T02:26:37.622Z,0
2018-04-13T02:27:38.275Z,0
2018-04-13T02:28:37.970Z,0
2018-04-13T02:29:37.746Z,0
2018-04-13T02:30:37.781Z,0
2018-04-13T02:31:37.813Z,0
2018-04-13T02:32:38.396Z,0
2018-04-13T02:33:38.405Z,0
2018-04-13T02:34:38.930Z,0
2018-04-13T02:35:37.971Z,0
2018-04-13T02:36:38.004Z,0
2018-04-13T02:37:38.574Z,0
2018-04-13T02:38:38.336Z,0
2018-04-13T02:39:38.644Z,0
2018-04-13T02:40:38.676Z,0
2018-04-13T02:41:38.197Z,0
2018-04-13T02:42:38.250Z,0
2018-04-13T02:43:38.807Z,0
2018-04-13T02:44:38.315Z,0
2018-04-13T02:45:38.346Z,0
2018-04-13T02:46:38.391Z,0
2018-04-13T02:47:38.957Z,0
2018-04-13T02:48:38.981Z,0
2018-04-13T02:49:38.760Z,0
2018-04-13T02:50:39.173Z,0
2018-04-13T02:51:38.840Z,0
2018-04-13T02:52:39.141Z,0
2018-04-13T02:53:38.655Z,0
2018-04-13T02:54:38.949Z,0
2018-04-13T02:55:38.724Z,0
2018-04-13T02:56:38.757Z,0
2018-04-13T02:57:38.802Z,0
2018-04-13T02:58:39.628Z,0
2018-04-13T02:59:38.872Z,0
2018-04-13T03:00:38.914Z,0
2018-04-13T03:01:39.213Z,0
2018-04-13T03:02:39.244Z,0
2018-04-13T03:03:39.280Z,0
2018-04-13T03:04:39.055Z,0
2018-04-13T03:05:39.102Z,0
2018-04-13T03:06:39.138Z,0
2018-04-13T03:07:39.483Z,0
2018-04-13T03:08:39.268Z,0
2018-04-13T03:09:39.516Z,0
2018-04-13T03:10:39.815Z,0
2018-04-13T03:11:39.573Z,0
2018-04-13T03:12:39.361Z,0
2018-04-13T03:13:39.662Z,0
2018-04-13T03:14:39.431Z,0
2018-04-13T03:15:39.471Z,0
2018-04-13T03:16:39.767Z,0
2018-04-13T03:17:39.554Z,0
2018-04-13T03:18:39.862Z,0
2018-04-13T03:19:39.628Z,0
2018-04-13T03:20:39.663Z,0
2018-04-13T03:21:39.703Z,0
2018-04-13T03:22:39.991Z,0
2018-04-13T03:23:39.776Z,0
2018-04-13T03:24:39.807Z,0
2018-04-13T03:25:40.111Z,0
2018-04-13T03:26:39.882Z,0
2018-04-13T03:27:39.927Z,0
2018-04-13T03:28:40.229Z,0
2018-04-13T03:29:40.271Z,0
2018-04-13T03:30:40.556Z,0
2018-04-13T03:31:40.615Z,0
2018-04-13T03:32:40.383Z,0
2018-04-13T03:33:40.150Z,0
2018-04-13T03:34:40.188Z,0
2018-04-13T03:35:40.220Z,0
2018-04-13T03:36:40.267Z,0
2018-04-13T03:37:40.346Z,0
2018-04-13T03:38:40.337Z,0
2018-04-13T03:39:40.634Z,0
2018-04-13T03:40:40.675Z,0
2018-04-13T03:41:40.441Z,0
2018-04-13T03:42:40.709Z,0
2018-04-13T03:43:40.535Z,0
2018-04-13T03:44:40.557Z,0
2018-04-13T03:45:40.604Z,0
2018-04-13T03:46:40.634Z,0
2018-04-13T03:47:40.676Z,0
2018-04-13T03:48:40.974Z,0
2018-04-13T03:49:40.747Z,4
2018-04-13T03:50:40.783Z,0
2018-04-13T03:51:40.824Z,0
2018-04-13T03:52:40.862Z,4
2018-04-13T03:53:40.897Z,4
2018-04-13T03:54:40.943Z,4
2018-04-13T03:55:40.971Z,4
2018-04-13T03:56:41.018Z,4
2018-04-13T03:57:41.046Z,8
2018-04-13T03:58:41.345Z,4
2018-04-13T03:59:41.126Z,8
2018-04-13T04:00:41.169Z,8
2018-04-13T04:01:41.198Z,12
2018-04-13T04:02:41.232Z,12
2018-04-13T04:03:41.270Z,12
2018-04-13T04:04:41.309Z,16
2018-04-13T04:05:41.613Z,16
2018-04-13T04:06:41.393Z,20
2018-04-13T04:07:41.421Z,24
2018-04-13T04:08:41.543Z,28
2018-04-13T04:09:41.496Z,28
2018-04-13T04:10:41.539Z,36
2018-04-13T04:11:41.584Z,36
2018-04-13T04:12:41.612Z,40
2018-04-13T04:13:41.708Z,48
2018-04-13T04:14:41.950Z,48
2018-04-13T04:15:41.724Z,56
2018-04-13T04:16:41.767Z,60
2018-04-13T04:17:41.809Z,64
2018-04-13T04:18:41.837Z,72
2018-04-13T04:19:41.885Z,76
2018-04-13T04:20:41.923Z,84
2018-04-13T04:21:41.957Z,92
2018-04-13T04:22:42.254Z,96
2018-04-13T04:23:42.041Z,104
2018-04-13T04:24:42.071Z,112
2018-04-13T04:25:42.098Z,120
2018-04-13T04:26:42.138Z,124
2018-04-13T04:27:42.190Z,132
2018-04-13T04:28:42.425Z,144
2018-04-13T04:29:42.260Z,156
2018-04-13T04:30:42.294Z,168
2018-04-13T04:31:42.327Z,184
2018-04-13T04:32:42.373Z,200
2018-04-13T04:33:42.406Z,220
2018-04-13T04:34:42.720Z,228
2018-04-13T04:35:42.479Z,244
2018-04-13T04:36:42.516Z,260
2018-04-13T04:37:42.562Z,272
2018-04-13T04:38:42.600Z,284
2018-04-13T04:39:42.905Z,292
2018-04-13T04:40:42.669Z,308
2018-04-13T04:41:42.968Z,324
2018-04-13T04:42:42.746Z,340
2018-04-13T04:43:43.313Z,352
2018-04-13T04:44:43.083Z,364
2018-04-13T04:45:43.126Z,376
2018-04-13T04:46:42.894Z,388
2018-04-13T04:47:42.930Z,400
2018-04-13T04:48:43.495Z,416
2018-04-13T04:49:43.006Z,424
2018-04-13T04:50:43.044Z,436
2018-04-13T04:51:43.083Z,444
2018-04-13T04:52:43.147Z,456
2018-04-13T04:53:43.419Z,464
2018-04-13T04:54:43.194Z,480
2018-04-13T04:55:43.493Z,496
2018-04-13T04:56:43.305Z,516
2018-04-13T04:57:43.308Z,540
2018-04-13T04:58:43.350Z,560
2018-04-13T04:59:44.038Z,580
2018-04-13T05:00:43.424Z,604
2018-04-13T05:01:43.466Z,628
2018-04-13T05:02:43.496Z,652
2018-04-13T05:03:43.533Z,664
2018-04-13T05:04:43.579Z,660
2018-04-13T05:05:43.610Z,664
2018-04-13T05:06:43.647Z,680
2018-04-13T05:07:43.684Z,720
2018-04-13T05:08:43.724Z,772
2018-04-13T05:09:43.939Z,804
2018-04-13T05:10:43.803Z,812
2018-04-13T05:11:43.835Z,812
2018-04-13T05:12:43.910Z,840
2018-04-13T05:13:43.914Z,840
2018-04-13T05:14:43.949Z,852
2018-04-13T05:15:43.988Z,904
2018-04-13T05:16:44.279Z,964
2018-04-13T05:17:44.578Z,1024
2018-04-13T05:18:44.106Z,1068
2018-04-13T05:19:44.409Z,1120
2018-04-13T05:20:44.179Z,1144
2018-04-13T05:21:44.344Z,1168
2018-04-13T05:22:44.252Z,1196
2018-04-13T05:23:44.286Z,1184
2018-04-13T05:24:44.597Z,1132
2018-04-13T05:25:44.624Z,1132
2018-04-13T05:26:44.399Z,1204
2018-04-13T05:27:44.707Z,1284
2018-04-13T05:28:44.479Z,1316
2018-04-13T05:29:44.525Z,1316
2018-04-13T05:30:44.561Z,1284
2018-04-13T05:31:44.856Z,1268
2018-04-13T05:32:44.899Z,1244
2018-04-13T05:33:44.672Z,1216
2018-04-13T05:34:44.961Z,1172
2018-04-13T05:35:45.000Z,1128
2018-04-13T05:36:44.778Z,1096
2018-04-13T05:37:44.818Z,1048
2018-04-13T05:38:44.854Z,1012
2018-04-13T05:39:44.906Z,1012
2018-04-13T05:40:44.928Z,1016
2018-04-13T05:41:45.034Z,1024
2018-04-13T05:42:45.059Z,1032
2018-04-13T05:43:45.041Z,1004
2018-04-13T05:44:45.339Z,960
2018-04-13T05:45:45.379Z,988
2018-04-13T05:46:45.158Z,992
2018-04-13T05:47:45.202Z,1012
2018-04-13T05:48:45.285Z,1136
2018-04-13T05:49:45.801Z,1252
2018-04-13T05:50:45.324Z,1324
2018-04-13T05:51:45.344Z,1384
2018-04-13T05:52:45.658Z,1440
2018-04-13T05:53:45.498Z,1440
2018-04-13T05:54:45.489Z,1432
2018-04-13T05:55:45.502Z,1480
2018-04-13T05:56:45.541Z,1612
2018-04-13T05:57:45.574Z,1828
2018-04-13T05:58:45.621Z,2064
2018-04-13T05:59:45.667Z,2276
2018-04-13T06:00:45.950Z,2436
2018-04-13T06:01:45.731Z,2448
2018-04-13T06:02:45.771Z,2356
2018-04-13T06:03:45.799Z,2364
2018-04-13T06:04:45.846Z,2444
2018-04-13T06:05:45.884Z,2480
2018-04-13T06:06:45.915Z,2420
2018-04-13T06:07:45.960Z,2288
2018-04-13T06:08:45.996Z,2220
2018-04-13T06:09:46.041Z,2424
2018-04-13T06:10:46.076Z,2736
2018-04-13T06:11:46.118Z,2812
2018-04-13T06:12:46.245Z,2588
2018-04-13T06:13:46.193Z,2336
2018-04-13T06:14:46.488Z,2264
2018-04-13T06:15:46.259Z,2356
2018-04-13T06:16:46.328Z,2384
2018-04-13T06:17:46.340Z,2276
2018-04-13T06:18:46.375Z,2240
2018-04-13T06:19:47.012Z,2276
2018-04-13T06:20:46.459Z,2352
2018-04-13T06:21:46.546Z,2352
2018-04-13T06:22:46.571Z,2176
2018-04-13T06:23:46.605Z,1928
2018-04-13T06:24:46.612Z,1932
2018-04-13T06:25:47.033Z,1960
2018-04-13T06:26:46.693Z,2004
2018-04-13T06:27:47.002Z,1996
2018-04-13T06:28:46.770Z,1956
2018-04-13T06:29:47.152Z,1992
2018-04-13T06:30:46.926Z,2048
2018-04-13T06:31:46.877Z,1980
2018-04-13T06:32:46.915Z,1964
2018-04-13T06:33:47.002Z,1872
2018-04-13T06:34:47.087Z,1716
2018-04-13T06:35:47.325Z,1704
2018-04-13T06:36:47.076Z,1664
2018-04-13T06:37:47.119Z,1540
2018-04-13T06:38:47.146Z,1444
2018-04-13T06:39:47.180Z,1400
2018-04-13T06:40:47.234Z,1392
2018-04-13T06:41:48.146Z,1408
2018-04-13T06:42:47.294Z,1432
2018-04-13T06:43:49.015Z,1408
2018-04-13T06:44:47.375Z,1380
2018-04-13T06:45:47.407Z,1456
2018-04-13T06:46:47.701Z,1544
2018-04-13T06:47:47.484Z,1620
2018-04-13T06:48:47.617Z,1664
2018-04-13T06:49:47.620Z,1688
2018-04-13T06:50:47.602Z,1704
2018-04-13T06:51:47.635Z,1692
2018-04-13T06:52:47.668Z,1712
2018-04-13T06:53:50.092Z,1724
2018-04-13T06:54:47.756Z,1776
2018-04-13T06:55:47.786Z,1856
2018-04-13T06:56:48.160Z,1948
2018-04-13T06:57:48.118Z,2028
2018-04-13T06:58:48.179Z,2088
2018-04-13T06:59:47.937Z,2164
2018-04-13T07:00:48.239Z,2288
2018-04-13T07:01:48.019Z,2436
2018-04-13T07:02:48.048Z,2608
2018-04-13T07:03:48.353Z,2924
2018-04-13T07:04:48.650Z,3320
2018-04-13T07:05:48.169Z,3564
2018-04-13T07:06:48.207Z,3544
2018-04-13T07:07:48.243Z,3612
2018-04-13T07:08:48.293Z,3920
2018-04-13T07:09:48.373Z,3988
2018-04-13T07:10:48.631Z,3688
2018-04-13T07:11:48.417Z,3408
2018-04-13T07:12:48.455Z,3532
2018-04-13T07:13:48.507Z,3648
2018-04-13T07:14:48.526Z,3548
2018-04-13T07:15:48.550Z,3308
2018-04-13T07:16:48.584Z,2952
2018-04-13T07:17:48.867Z,2704
2018-04-13T07:18:48.675Z,2756
2018-04-13T07:19:48.704Z,2848
2018-04-13T07:20:49.021Z,2636
2018-04-13T07:21:49.039Z,2296
2018-04-13T07:22:48.833Z,2000
2018-04-13T07:23:48.854Z,1908
2018-04-13T07:24:49.174Z,2008
2018-04-13T07:25:48.938Z,2140
2018-04-13T07:26:49.245Z,2172
2018-04-13T07:27:49.016Z,2460
2018-04-13T07:28:49.062Z,2812
2018-04-13T07:29:49.431Z,3312
2018-04-13T07:30:49.123Z,3892
2018-04-13T07:31:49.161Z,3992
2018-04-13T07:32:49.467Z,3984
2018-04-13T07:33:49.503Z,4572
2018-04-13T07:34:49.275Z,5084
2018-04-13T07:35:49.316Z,4020
2018-04-13T07:36:49.848Z,3688
2018-04-13T07:37:49.399Z,3188
2018-04-13T07:38:49.430Z,2708
2018-04-13T07:39:49.989Z,2172
2018-04-13T07:40:49.504Z,2092
2018-04-13T07:41:50.108Z,2188
2018-04-13T07:42:49.651Z,2536
2018-04-13T07:43:49.669Z,3400
2018-04-13T07:44:50.134Z,4168
2018-04-13T07:45:50.005Z,4912
2018-04-13T07:46:49.733Z,4524
2018-04-13T07:47:50.091Z,4196
2018-04-13T07:48:50.881Z,4332
2018-04-13T07:49:49.860Z,4456
2018-04-13T07:50:49.897Z,4552
2018-04-13T07:51:49.934Z,4944
2018-04-13T07:52:49.972Z,4148
2018-04-13T07:53:50.013Z,3612
2018-04-13T07:54:50.310Z,3552
2018-04-13T07:55:50.080Z,3092
2018-04-13T07:56:50.542Z,2776
2018-04-13T07:57:50.157Z,2860
2018-04-13T07:58:50.208Z,3084
2018-04-13T07:59:50.982Z,3296
2018-04-13T08:00:50.863Z,3352
2018-04-13T08:01:51.510Z,4728
2018-04-13T08:02:50.903Z,6076
2018-04-13T08:03:50.392Z,7396
2018-04-13T08:04:50.433Z,9292
2018-04-13T08:05:50.736Z,8476
2018-04-13T08:06:50.520Z,10376
2018-04-13T08:07:50.546Z,10400
2018-04-13T08:08:50.584Z,9556
2018-04-13T08:09:50.631Z,10456
2018-04-13T08:10:51.128Z,13456
2018-04-13T08:11:50.710Z,14828
2018-04-13T08:12:50.739Z,15204
2018-04-13T08:13:50.775Z,15488
2018-04-13T08:14:50.817Z,15448
2018-04-13T08:15:51.114Z,18656
2018-04-13T08:16:50.892Z,19040
2018-04-13T08:17:50.934Z,18240
2018-04-13T08:18:50.980Z,14852
2018-04-13T08:19:51.024Z,12956
2018-04-13T08:20:51.095Z,11872
2018-04-13T08:21:51.089Z,12072
2018-04-13T08:22:51.401Z,12544
2018-04-13T08:23:51.177Z,12036
2018-04-13T08:24:51.221Z,9772
2018-04-13T08:25:51.322Z,7984
2018-04-13T08:26:51.297Z,7092
2018-04-13T08:27:51.372Z,6924
2018-04-13T08:28:51.370Z,6976
2018-04-13T08:29:52.138Z,6420
2018-04-13T08:30:51.453Z,6328
2018-04-13T08:31:51.491Z,6288
2018-04-13T08:32:51.830Z,5632
2018-04-13T08:33:51.577Z,6108
2018-04-13T08:34:51.617Z,6980
2018-04-13T08:35:51.665Z,8420
2018-04-13T08:36:52.289Z,9164
2018-04-13T08:37:52.004Z,9864
2018-04-13T08:38:52.047Z,10588
2018-04-13T08:39:51.816Z,9216
2018-04-13T08:40:51.858Z,8076
2018-04-13T08:41:51.893Z,9408
2018-04-13T08:42:51.927Z,10076
2018-04-13T08:43:51.975Z,8936
2018-04-13T08:44:52.271Z,7384
2018-04-13T08:45:52.312Z,6312
2018-04-13T08:46:52.095Z,6644
2018-04-13T08:47:52.130Z,7708
2018-04-13T08:48:52.792Z,7720
2018-04-13T08:49:52.486Z,8788
2018-04-13T08:50:52.253Z,9152
2018-04-13T08:51:52.334Z,11288
2018-04-13T08:52:52.663Z,14912
2018-04-13T08:53:52.357Z,17632
2018-04-13T08:54:53.445Z,28416
2018-04-13T08:55:52.519Z,33792
2018-04-13T08:56:52.496Z,19136
2018-04-13T08:57:52.795Z,16236
2018-04-13T08:58:52.572Z,15296
2018-04-13T08:59:52.600Z,14304
2018-04-13T09:00:52.906Z,16896
2018-04-13T09:01:52.685Z,22016
2018-04-13T09:02:52.727Z,38304
2018-04-13T09:03:52.763Z,41696
2018-04-13T09:04:52.802Z,76416
2018-04-13T09:05:52.845Z,59968
2018-04-13T09:06:52.898Z,50688
2018-04-13T09:07:53.212Z,27968
2018-04-13T09:08:52.970Z,48320
2018-04-13T09:09:53.018Z,16556
2018-04-13T09:10:53.055Z,14076
2018-04-13T09:11:53.110Z,10376
2018-04-13T09:12:53.139Z,6944
2018-04-13T09:13:53.189Z,5172
2018-04-13T09:14:53.222Z,5048
2018-04-13T09:15:53.271Z,5936
2018-04-13T09:16:53.581Z,6996
2018-04-13T09:17:53.353Z,7932
2018-04-13T09:18:53.397Z,6820
2018-04-13T09:19:53.432Z,6724
2018-04-13T09:20:53.520Z,7092
2018-04-13T09:21:53.782Z,6460
2018-04-13T09:22:53.560Z,6756
2018-04-13T09:23:53.603Z,7972
2018-04-13T09:24:53.640Z,7152
2018-04-13T09:25:53.679Z,6844
2018-04-13T09:26:53.722Z,6188
2018-04-13T09:27:53.797Z,5516
2018-04-13T09:28:53.803Z,5040
2018-04-13T09:29:53.849Z,5192
2018-04-13T09:30:53.890Z,5784
2018-04-13T09:31:53.927Z,5292
2018-04-13T09:32:53.964Z,4652
2018-04-13T09:33:54.013Z,4740
2018-04-13T09:34:54.048Z,5668
2018-04-13T09:35:54.084Z,6312
2018-04-13T09:36:54.138Z,6536
2018-04-13T09:37:54.168Z,5920
2018-04-13T09:38:54.465Z,5396
2018-04-13T09:39:54.242Z,4764
2018-04-13T09:40:54.296Z,4592
2018-04-13T09:41:54.319Z,6092
2018-04-13T09:42:54.367Z,9484
2018-04-13T09:43:54.666Z,11644
2018-04-13T09:44:54.443Z,12740
2018-04-13T09:45:54.486Z,13252
2018-04-13T09:46:54.527Z,12852
2018-04-13T09:47:54.826Z,12808
2018-04-13T09:48:54.597Z,11712
2018-04-13T09:49:54.643Z,11812
2018-04-13T09:50:54.684Z,12996
2018-04-13T09:51:54.728Z,15068
2018-04-13T09:52:55.056Z,24992
2018-04-13T09:53:54.803Z,54112
2018-04-13T09:54:54.849Z,58112
2018-04-13T09:55:55.153Z,25440
2018-04-13T09:56:54.923Z,17120
2018-04-13T09:57:55.004Z,19360
2018-04-13T09:58:55.281Z,31808
2018-04-13T09:59:55.052Z,24960
2018-04-13T10:00:55.093Z,16240
2018-04-13T10:01:55.169Z,15248
2018-04-13T10:02:55.175Z,40128
2018-04-13T10:03:55.323Z,43424
2018-04-13T10:04:55.271Z,33120
2018-04-13T10:05:55.556Z,46912
2018-04-13T10:06:55.346Z,39424
2018-04-13T10:07:55.383Z,58912
2018-04-13T10:08:55.430Z,66144
2018-04-13T10:09:55.732Z,71168
2018-04-13T10:10:55.518Z,73152
2018-04-13T10:11:55.558Z,79328
2018-04-13T10:12:55.602Z,53760
2018-04-13T10:13:55.653Z,31520
2018-04-13T10:14:55.699Z,32672
2018-04-13T10:15:55.734Z,55136
2018-04-13T10:16:56.057Z,27584
2018-04-13T10:17:56.095Z,46656
2018-04-13T10:18:55.884Z,16544
2018-04-13T10:19:55.925Z,11908
2018-04-13T10:20:56.622Z,10948
2018-04-13T10:21:56.019Z,9740
2018-04-13T10:22:56.059Z,9520
2018-04-13T10:23:56.113Z,8564
2018-04-13T10:24:56.152Z,8944
2018-04-13T10:25:56.200Z,10608
2018-04-13T10:26:56.573Z,25856
2018-04-13T10:27:56.292Z,15616
2018-04-13T10:28:56.326Z,28768
2018-04-13T10:29:56.424Z,42240
2018-04-13T10:30:56.550Z,42528
2018-04-13T10:31:56.460Z,28480
2018-04-13T10:32:56.511Z,20160
2018-04-13T10:33:56.550Z,18400
2018-04-13T10:34:56.866Z,18592
2018-04-13T10:35:57.153Z,19904
2018-04-13T10:36:56.684Z,14696
2018-04-13T10:37:56.729Z,13436
2018-04-13T10:38:56.771Z,13240
2018-04-13T10:39:57.342Z,13752
2018-04-13T10:40:56.855Z,12988
2018-04-13T10:41:56.897Z,11048
2018-04-13T10:42:57.208Z,8316
2018-04-13T10:43:56.978Z,7292
2018-04-13T10:44:57.031Z,7324
2018-04-13T10:45:57.073Z,8012
2018-04-13T10:46:57.109Z,8480
2018-04-13T10:47:57.155Z,9472
2018-04-13T10:48:57.192Z,11364
2018-04-13T10:49:57.239Z,13380
2018-04-13T10:50:57.280Z,9068
2018-04-13T10:51:57.318Z,7984
2018-04-13T10:52:57.367Z,8320
2018-04-13T10:53:57.401Z,9720
2018-04-13T10:54:57.760Z,8732
2018-04-13T10:55:57.486Z,7044
2018-04-13T10:56:57.529Z,6980
2018-04-13T10:57:58.085Z,6972
2018-04-13T10:58:57.883Z,7368
2018-04-13T10:59:57.647Z,8280
2018-04-13T11:00:57.685Z,9104
2018-04-13T11:01:57.731Z,9752
2018-04-13T11:02:58.032Z,10772
2018-04-13T11:03:57.806Z,13136
2018-04-13T11:04:57.851Z,11676
2018-04-13T11:05:58.159Z,9124
2018-04-13T11:06:57.930Z,7336
2018-04-13T11:07:57.974Z,5080
2018-04-13T11:08:58.010Z,4976
2018-04-13T11:09:58.050Z,5840
2018-04-13T11:10:58.353Z,6280
2018-04-13T11:11:58.144Z,6392
2018-04-13T11:12:58.175Z,6396
2018-04-13T11:13:58.207Z,6744
2018-04-13T11:14:58.254Z,7332
2018-04-13T11:15:58.297Z,8024
2018-04-13T11:16:59.008Z,8340
2018-04-13T11:17:58.372Z,8568
2018-04-13T11:18:58.407Z,9260
2018-04-13T11:19:58.720Z,9936
2018-04-13T11:20:58.831Z,10152
2018-04-13T11:21:58.559Z,11228
2018-04-13T11:22:58.575Z,12172
2018-04-13T11:23:58.638Z,12212
2018-04-13T11:24:58.966Z,13264
2018-04-13T11:25:58.956Z,12860
2018-04-13T11:26:58.735Z,10500
2018-04-13T11:27:58.775Z,9384
2018-04-13T11:28:58.815Z,9648
2018-04-13T11:29:58.855Z,10020
2018-04-13T11:30:58.944Z,10196
2018-04-13T11:31:59.206Z,10256
2018-04-13T11:32:58.976Z,10388
2018-04-13T11:33:59.018Z,10912
2018-04-13T11:34:59.076Z,11160
2018-04-13T11:35:59.369Z,10988
2018-04-13T11:36:59.134Z,11728
2018-04-13T11:37:59.204Z,13096
2018-04-13T11:38:59.223Z,14108
2018-04-13T11:39:59.261Z,15168
2018-04-13T11:40:59.309Z,13916
2018-04-13T11:41:59.338Z,14452
2018-04-13T11:42:59.372Z,14528
2018-04-13T11:43:59.421Z,14792
2018-04-13T11:44:59.462Z,15260
2018-04-13T11:45:59.500Z,15124
2018-04-13T11:46:59.544Z,16364
2018-04-13T11:47:59.583Z,17184
2018-04-13T11:48:59.624Z,16540
2018-04-13T11:49:59.660Z,16896
2018-04-13T11:50:59.971Z,15564
2018-04-13T11:51:59.748Z,13448
2018-04-13T11:53:00.045Z,13088
2018-04-13T11:53:59.832Z,12524
2018-04-13T11:54:59.870Z,12016
2018-04-13T11:55:59.912Z,11920
2018-04-13T11:56:59.950Z,11928
2018-04-13T11:58:00.254Z,12576
2018-04-13T11:59:00.031Z,12680
2018-04-13T12:00:00.081Z,12592
2018-04-13T12:01:00.113Z,13032
2018-04-13T12:02:00.165Z,13804
2018-04-13T12:03:00.212Z,14636
2018-04-13T12:04:00.232Z,15132
2018-04-13T12:05:00.280Z,15564
2018-04-13T12:06:00.590Z,15704
2018-04-13T12:07:00.710Z,15884
2018-04-13T12:08:00.668Z,15736
2018-04-13T12:09:00.501Z,14764
2018-04-13T12:10:00.488Z,13448
2018-04-13T12:11:00.597Z,13732
2018-04-13T12:12:00.580Z,12856
2018-04-13T12:13:00.618Z,13924
2018-04-13T12:14:00.661Z,13768
2018-04-13T12:15:00.703Z,14536
2018-04-13T12:16:00.744Z,13088
2018-04-13T12:17:00.819Z,12276
2018-04-13T12:18:01.079Z,11832
2018-04-13T12:19:00.944Z,12488
2018-04-13T12:20:00.904Z,10412
2018-04-13T12:21:01.204Z,9464
2018-04-13T12:22:00.990Z,9836
2018-04-13T12:23:01.046Z,10232
2018-04-13T12:24:01.309Z,9784
2018-04-13T12:25:01.370Z,7872
2018-04-13T12:26:01.153Z,6500
2018-04-13T12:27:01.458Z,6568
2018-04-13T12:28:01.500Z,6820
2018-04-13T12:29:01.283Z,6164
2018-04-13T12:30:01.400Z,5216
2018-04-13T12:31:01.366Z,4804
2018-04-13T12:32:01.406Z,3976
2018-04-13T12:33:01.706Z,3628
2018-04-13T12:34:01.750Z,4060
2018-04-13T12:35:01.525Z,4340
2018-04-13T12:36:02.319Z,4400
2018-04-13T12:37:07.494Z,5716
2018-04-13T12:38:05.750Z,7356
2018-04-13T12:39:01.944Z,7636
2018-04-13T12:40:04.672Z,7920
2018-04-13T12:41:08.677Z,7992
2018-04-13T12:42:01.809Z,7684
2018-04-13T12:43:01.844Z,7232
2018-04-13T12:44:02.143Z,7148
2018-04-13T12:45:02.194Z,7220
2018-04-13T12:46:01.968Z,7128
2018-04-13T12:47:02.007Z,6748
2018-04-13T12:48:02.300Z,6348
2018-04-13T12:49:02.450Z,5928
2018-04-13T12:50:02.656Z,6416
2018-04-13T12:51:02.472Z,6408
2018-04-13T12:52:02.205Z,6076
2018-04-13T12:53:02.544Z,5900
2018-04-13T12:54:02.852Z,5644
2018-04-13T12:55:02.599Z,5364
2018-04-13T12:56:02.403Z,5152
2018-04-13T12:57:02.399Z,5056
2018-04-13T12:58:02.443Z,5064
2018-04-13T12:59:02.740Z,5196
2018-04-13T13:00:02.519Z,5320
2018-04-13T13:01:02.559Z,5300
2018-04-13T13:02:02.595Z,5204
2018-04-13T13:03:02.897Z,5316
2018-04-13T13:04:02.673Z,5768
2018-04-13T13:05:02.755Z,6512
2018-04-13T13:06:02.742Z,7108
2018-04-13T13:07:02.787Z,7492
2018-04-13T13:08:03.083Z,7628
2018-04-13T13:09:02.870Z,7716
2018-04-13T13:10:02.897Z,7848
2018-04-13T13:11:02.937Z,8352
2018-04-13T13:12:02.973Z,9184
2018-04-13T13:13:03.022Z,10032
2018-04-13T13:14:03.061Z,10496
2018-04-13T13:15:03.092Z,10760
2018-04-13T13:16:03.442Z,10748
2018-04-13T13:17:03.171Z,10800
2018-04-13T13:18:03.210Z,10516
2018-04-13T13:19:03.246Z,9924
2018-04-13T13:20:03.283Z,9304
2018-04-13T13:21:03.318Z,8708
2018-04-13T13:22:03.361Z,8340
2018-04-13T13:23:03.665Z,8188
2018-04-13T13:24:03.710Z,8320
2018-04-13T13:25:03.742Z,8592
2018-04-13T13:26:03.518Z,8892
2018-04-13T13:27:03.555Z,9296
2018-04-13T13:28:03.593Z,9548
2018-04-13T13:29:03.904Z,9336
2018-04-13T13:30:03.676Z,9320
2018-04-13T13:31:03.709Z,9516
2018-04-13T13:32:03.749Z,9692
2018-04-13T13:33:03.789Z,9868
2018-04-13T13:34:03.834Z,10216
2018-04-13T13:35:03.917Z,10404
2018-04-13T13:36:03.909Z,9896
2018-04-13T13:37:03.947Z,9928
2018-04-13T13:38:03.983Z,9904
2018-04-13T13:39:04.288Z,9196
2018-04-13T13:40:04.061Z,8148
2018-04-13T13:41:04.098Z,6836